createdAt,value
2022-12-25T00:02:27.748Z,4.72
2022-12-25T00:05:13.062Z,4.77
2022-12-25T00:07:58.358Z,4.84
2022-12-25T00:10:45.584Z,4.85
2022-12-25T00:13:31.674Z,4.83
2022-12-25T00:16:20.128Z,4.93
2022-12-25T00:19:05.329Z,4.92
2022-12-25T00:21:50.739Z,4.98
2022-12-25T00:24:36.097Z,4.85
2022-12-25T00:27:21.491Z,4.89
2022-12-25T00:30:07.542Z,4.95
2022-12-25T00:32:52.601Z,5.04
2022-12-25T00:35:37.475Z,5.08
2022-12-25T00:38:22.307Z,5.05
2022-12-25T00:41:13.115Z,4.97
2022-12-25T00:43:58.611Z,5.03
2022-12-25T00:46:43.613Z,4.96
2022-12-25T00:49:28.707Z,5.01
2022-12-25T00:52:14.009Z,5.03
2022-12-25T00:54:59.575Z,4.98
2022-12-25T00:57:44.818Z,5.05
2022-12-25T01:00:29.771Z,5.00
2022-12-25T01:03:17.638Z,5.03
2022-12-25T01:06:05.548Z,5.03
2022-12-25T01:08:50.737Z,5.06
2022-12-25T01:11:36.068Z,5.17
2022-12-25T01:14:20.831Z,5.08
2022-12-25T01:17:05.763Z,5.07
2022-12-25T01:19:51.399Z,5.07
2022-12-25T01:22:36.730Z,5.14
2022-12-25T01:25:22.559Z,5.14
2022-12-25T01:28:07.572Z,5.14
2022-12-25T01:30:52.810Z,5.14
2022-12-25T01:33:39.084Z,5.27
2022-12-25T01:36:26.172Z,5.27
2022-12-25T01:39:11.404Z,5.29
2022-12-25T01:41:56.969Z,5.34
2022-12-25T01:44:48.144Z,5.32
2022-12-25T01:47:33.808Z,5.47
2022-12-25T01:50:20.027Z,5.49
2022-12-25T01:53:06.338Z,5.53
2022-12-25T01:55:57.280Z,5.61
2022-12-25T01:58:42.886Z,5.67
2022-12-25T02:01:28.110Z,5.66
2022-12-25T02:04:30.205Z,5.72
2022-12-25T02:07:19.298Z,5.70
2022-12-25T02:10:05.156Z,5.78
2022-12-25T02:12:51.061Z,5.70
2022-12-25T02:16:19.141Z,5.62
2022-12-25T02:19:23.700Z,5.68
2022-12-25T02:22:25.588Z,5.61
2022-12-25T02:25:35.849Z,5.65
2022-12-25T02:28:27.299Z,5.69
2022-12-25T02:31:18.872Z,5.72
2022-12-25T02:34:16.689Z,5.82
2022-12-25T02:37:10.463Z,5.83
2022-12-25T02:40:17.203Z,5.80
2022-12-25T02:43:07.498Z,5.87
2022-12-25T02:46:00.914Z,5.93
2022-12-25T02:48:56.932Z,5.95
2022-12-25T02:51:47.527Z,5.98
2022-12-25T02:54:38.503Z,6.03
2022-12-25T02:57:29.669Z,6.03
2022-12-25T03:00:15.466Z,6.06
2022-12-25T03:03:07.174Z,5.99
2022-12-25T03:05:57.145Z,5.98
2022-12-25T03:08:44.924Z,5.95
2022-12-25T03:11:30.060Z,5.96
2022-12-25T03:14:15.333Z,5.98
2022-12-25T03:17:00.472Z,6.01
2022-12-25T03:19:45.798Z,6.09
2022-12-25T03:22:32.232Z,6.06
2022-12-25T03:25:18.707Z,6.05
2022-12-25T03:28:05.802Z,6.09
2022-12-25T03:30:58.952Z,6.07
2022-12-25T03:33:47.315Z,6.08
2022-12-25T03:36:47.630Z,6.13
2022-12-25T03:39:45.434Z,6.25
2022-12-25T03:42:42.474Z,6.28
2022-12-25T03:45:50.753Z,6.26
2022-12-25T03:48:40.609Z,6.26
2022-12-25T03:51:31.059Z,6.30
2022-12-25T03:54:21.101Z,6.29
2022-12-25T03:57:08.034Z,6.37
2022-12-25T03:59:52.904Z,6.43
2022-12-25T04:02:38.257Z,6.55
2022-12-25T04:05:23.432Z,6.63
2022-12-25T04:08:08.402Z,6.67
2022-12-25T04:10:54.108Z,6.66
2022-12-25T04:13:39.283Z,6.57
2022-12-25T04:16:24.197Z,6.57
2022-12-25T04:19:09.700Z,6.54
2022-12-25T04:21:54.795Z,6.69
2022-12-25T04:24:39.620Z,6.77
2022-12-25T04:27:24.545Z,6.79
2022-12-25T04:30:10.270Z,6.76
2022-12-25T04:32:58.969Z,6.73
2022-12-25T04:35:47.927Z,6.73
2022-12-25T04:38:32.826Z,6.71
2022-12-25T04:41:17.911Z,6.77
2022-12-25T04:44:03.016Z,6.85
2022-12-25T04:46:48.155Z,6.88
2022-12-25T04:49:33.422Z,6.94
2022-12-25T04:52:18.783Z,6.93
2022-12-25T04:55:05.248Z,6.94
2022-12-25T04:57:50.333Z,7.03
2022-12-25T05:00:36.029Z,7.01
2022-12-25T05:03:21.242Z,6.90
2022-12-25T05:06:07.242Z,6.93
2022-12-25T05:08:52.102Z,6.86
2022-12-25T05:11:37.565Z,6.85
2022-12-25T05:14:22.592Z,6.72
2022-12-25T05:17:08.326Z,6.68
2022-12-25T05:19:53.480Z,6.67
2022-12-25T05:22:38.970Z,6.66
2022-12-25T05:25:24.251Z,6.77
2022-12-25T05:28:09.104Z,6.79
2022-12-25T05:30:56.781Z,6.89
2022-12-25T05:33:42.113Z,6.92
2022-12-25T05:36:27.573Z,6.90
2022-12-25T05:39:12.729Z,6.96
2022-12-25T05:41:58.198Z,7.02
2022-12-25T05:44:43.423Z,7.03
2022-12-25T05:47:28.477Z,7.03
2022-12-25T05:50:13.349Z,7.01
2022-12-25T05:53:04.346Z,7.04
2022-12-25T05:55:53.010Z,7.04
2022-12-25T05:58:39.655Z,7.08
2022-12-25T06:01:27.936Z,7.06
2022-12-25T06:04:13.371Z,7.15
2022-12-25T06:06:58.512Z,6.99
2022-12-25T06:09:43.897Z,7.02
2022-12-25T06:12:28.850Z,6.93
2022-12-25T06:15:14.428Z,7.01
2022-12-25T06:18:00.692Z,7.03
2022-12-25T06:20:46.019Z,7.12
2022-12-25T06:23:31.381Z,7.04
2022-12-25T06:26:18.512Z,7.03
2022-12-25T06:29:04.150Z,7.01
2022-12-25T06:31:49.344Z,7.06
2022-12-25T06:34:34.730Z,7.08
2022-12-25T06:37:19.524Z,7.12
2022-12-25T06:40:04.886Z,7.06
2022-12-25T06:42:51.763Z,7.06
2022-12-25T06:45:37.407Z,7.05
2022-12-25T06:48:22.592Z,7.03
2022-12-25T06:51:07.775Z,7.08
2022-12-25T06:53:54.870Z,7.11
2022-12-25T06:56:40.360Z,7.24
2022-12-25T06:59:25.685Z,7.19
2022-12-25T07:02:19.324Z,7.26
2022-12-25T07:05:05.478Z,7.23
2022-12-25T07:07:50.641Z,7.26
2022-12-25T07:10:35.414Z,7.19
2022-12-25T07:13:20.595Z,7.22
2022-12-25T07:16:06.152Z,7.22
2022-12-25T07:18:51.322Z,7.22
2022-12-25T07:21:36.587Z,7.26
2022-12-25T07:24:23.035Z,7.31
2022-12-25T07:27:08.237Z,7.27
2022-12-25T07:29:53.494Z,7.37
2022-12-25T07:32:38.452Z,7.37
2022-12-25T07:35:23.882Z,7.39
2022-12-25T07:38:09.794Z,7.39
2022-12-25T07:40:55.110Z,7.37
2022-12-25T07:43:40.757Z,7.39
2022-12-25T07:46:25.966Z,7.52
2022-12-25T07:49:11.547Z,7.50
2022-12-25T07:51:56.767Z,7.51
2022-12-25T07:54:42.172Z,7.57
2022-12-25T07:57:26.928Z,7.57
2022-12-25T08:00:12.618Z,7.66
2022-12-25T08:02:58.609Z,7.58
2022-12-25T08:05:44.017Z,7.66
2022-12-25T08:08:29.857Z,7.74
2022-12-25T08:11:14.784Z,7.78
2022-12-25T08:14:00.067Z,7.70
2022-12-25T08:16:45.113Z,7.71
2022-12-25T08:19:30.254Z,7.72
2022-12-25T08:22:15.292Z,7.70
2022-12-25T08:25:00.788Z,7.74
2022-12-25T08:27:46.474Z,7.74
2022-12-25T08:30:31.963Z,7.74
2022-12-25T08:33:17.778Z,7.73
2022-12-25T08:36:05.346Z,7.81
2022-12-25T08:38:51.007Z,7.81
2022-12-25T08:41:36.134Z,7.79
2022-12-25T08:44:21.111Z,7.88
2022-12-25T08:47:06.329Z,7.83
2022-12-25T08:49:51.265Z,7.94
2022-12-25T08:52:36.583Z,7.97
2022-12-25T08:55:21.482Z,7.88
2022-12-25T08:58:06.478Z,7.88
2022-12-25T09:00:51.808Z,7.97
2022-12-25T09:03:37.349Z,8.04
2022-12-25T09:06:22.493Z,7.99
2022-12-25T09:09:07.341Z,8.02
2022-12-25T09:11:52.313Z,8.05
2022-12-25T09:14:37.704Z,8.03
2022-12-25T09:17:22.676Z,8.08
2022-12-25T09:20:08.013Z,8.02
2022-12-25T09:22:53.282Z,7.92
2022-12-25T09:25:38.253Z,7.99
2022-12-25T09:28:23.294Z,7.96
2022-12-25T09:31:08.503Z,8.09
2022-12-25T09:33:57.586Z,8.06
2022-12-25T09:36:42.595Z,8.08
2022-12-25T09:39:27.749Z,8.09
2022-12-25T09:42:33.340Z,8.07
2022-12-25T09:45:33.954Z,8.03
2022-12-25T09:48:19.273Z,8.01
2022-12-25T09:51:10.154Z,8.02
2022-12-25T09:54:02.977Z,8.13
2022-12-25T09:56:48.338Z,8.13
2022-12-25T09:59:33.556Z,8.22
2022-12-25T10:02:40.962Z,8.17
2022-12-25T10:05:44.413Z,8.24
2022-12-25T10:08:53.892Z,8.27
2022-12-25T10:11:51.453Z,8.22
2022-12-25T10:14:47.568Z,8.23
2022-12-25T10:17:58.900Z,8.33
2022-12-25T10:20:53.044Z,8.35
2022-12-25T10:23:46.695Z,8.42
2022-12-25T10:26:33.931Z,8.40
2022-12-25T10:29:19.886Z,8.46
2022-12-25T10:32:05.380Z,8.35
2022-12-25T10:34:51.281Z,8.26
2022-12-25T10:37:36.253Z,8.30
2022-12-25T10:41:00.193Z,8.26
2022-12-25T10:43:49.571Z,8.16
2022-12-25T10:46:35.134Z,8.14
2022-12-25T10:49:23.100Z,8.15
2022-12-25T10:52:20.602Z,8.09
2022-12-25T10:55:23.661Z,8.11
2022-12-25T10:58:20.206Z,8.17
2022-12-25T11:01:07.345Z,8.19
2022-12-25T11:03:52.677Z,8.23
2022-12-25T11:06:38.077Z,8.22
2022-12-25T11:09:23.144Z,8.25
2022-12-25T11:12:17.931Z,8.30
2022-12-25T11:15:07.339Z,8.38
2022-12-25T11:17:52.394Z,8.54
2022-12-25T11:20:41.301Z,8.45
2022-12-25T11:23:32.360Z,8.41
2022-12-25T11:26:18.472Z,8.35
2022-12-25T11:29:17.059Z,8.41
2022-12-25T11:32:05.075Z,8.43
2022-12-25T11:34:50.932Z,8.41
2022-12-25T11:37:45.980Z,8.46
2022-12-25T11:40:53.853Z,8.51
2022-12-25T11:43:46.742Z,8.42
2022-12-25T11:46:41.751Z,8.50
2022-12-25T11:49:28.615Z,8.58
2022-12-25T11:52:15.171Z,8.66
2022-12-25T11:55:19.571Z,8.62
2022-12-25T11:58:15.257Z,8.61
2022-12-25T12:01:06.325Z,8.57
2022-12-25T12:03:51.252Z,8.56
2022-12-25T12:07:00.080Z,8.55
2022-12-25T12:10:03.876Z,8.56
2022-12-25T12:13:15.604Z,8.57
2022-12-25T12:16:00.550Z,8.55
2022-12-25T12:18:50.394Z,8.55
2022-12-25T12:21:36.196Z,8.48
2022-12-25T12:24:23.668Z,8.46
2022-12-25T12:27:32.665Z,8.52
2022-12-25T12:30:26.897Z,8.52
2022-12-25T12:33:20.554Z,8.52
2022-12-25T12:36:06.036Z,8.60
2022-12-25T12:38:51.320Z,8.62
2022-12-25T12:41:48.391Z,8.55
2022-12-25T12:44:33.807Z,8.55
2022-12-25T12:47:28.343Z,8.55
2022-12-25T12:50:38.507Z,8.52
2022-12-25T12:53:23.548Z,8.50
2022-12-25T12:56:14.866Z,8.56
2022-12-25T12:59:00.157Z,8.61
2022-12-25T13:01:57.260Z,8.68
2022-12-25T13:04:50.444Z,8.63
2022-12-25T13:08:07.097Z,8.65
2022-12-25T13:11:05.119Z,8.69
2022-12-25T13:13:52.463Z,8.68
2022-12-25T13:16:43.627Z,8.62
2022-12-25T13:19:29.282Z,8.68
2022-12-25T13:22:32.628Z,8.62
2022-12-25T13:25:21.691Z,8.60
2022-12-25T13:28:13.808Z,8.71
2022-12-25T13:31:05.597Z,8.69
2022-12-25T13:33:57.786Z,8.58
2022-12-25T13:36:43.732Z,8.57
2022-12-25T13:39:28.811Z,8.63
2022-12-25T13:42:18.296Z,8.62
2022-12-25T13:45:07.041Z,8.69
2022-12-25T13:47:55.425Z,8.69
2022-12-25T13:50:41.308Z,8.78
2022-12-25T13:53:26.370Z,8.76
2022-12-25T13:56:14.868Z,8.71
2022-12-25T13:59:00.115Z,8.70
2022-12-25T14:01:46.195Z,8.79
2022-12-25T14:04:31.336Z,8.81
2022-12-25T14:07:21.636Z,8.77
2022-12-25T14:10:12.241Z,8.72
2022-12-25T14:12:59.772Z,8.75
2022-12-25T14:15:46.526Z,8.79
2022-12-25T14:18:32.517Z,8.83
2022-12-25T14:21:37.307Z,8.79
2022-12-25T14:24:25.494Z,8.84
2022-12-25T14:27:25.637Z,8.77
2022-12-25T14:30:12.880Z,8.86
2022-12-25T14:32:58.134Z,8.79
2022-12-25T14:35:44.372Z,8.81
2022-12-25T14:38:31.641Z,8.92
2022-12-25T14:41:26.322Z,8.81
2022-12-25T14:44:30.983Z,8.77
2022-12-25T14:47:20.696Z,8.93
2022-12-25T14:50:16.180Z,8.79
2022-12-25T14:53:01.358Z,8.81
2022-12-25T14:55:52.635Z,8.91
2022-12-25T14:58:46.746Z,9.00
2022-12-25T15:01:37.542Z,9.01
2022-12-25T15:04:24.572Z,9.01
2022-12-25T15:07:27.832Z,9.01
2022-12-25T15:10:57.557Z,9.03
2022-12-25T15:13:18.297Z,8.94
2022-12-25T15:16:14.615Z,8.81
2022-12-25T15:18:59.980Z,8.79
2022-12-25T15:21:45.060Z,8.83
2022-12-25T15:24:30.099Z,8.92
2022-12-25T15:27:19.296Z,8.92
2022-12-25T15:30:11.545Z,8.96
2022-12-25T15:32:56.938Z,8.92
2022-12-25T15:35:43.847Z,8.99
2022-12-25T15:38:29.094Z,9.01
2022-12-25T15:41:24.978Z,8.89
2022-12-25T15:44:11.731Z,8.91
2022-12-25T15:46:56.590Z,8.86
2022-12-25T15:49:42.846Z,8.92
2022-12-25T15:52:27.919Z,8.87
2022-12-25T15:55:13.867Z,9.01
2022-12-25T15:57:58.738Z,8.93
2022-12-25T16:00:43.714Z,8.94
2022-12-25T16:03:28.627Z,8.95
2022-12-25T16:06:17.013Z,9.00
2022-12-25T16:09:02.249Z,8.92
2022-12-25T16:11:47.522Z,8.86
2022-12-25T16:14:32.647Z,8.96
2022-12-25T16:17:17.674Z,8.89
2022-12-25T16:20:03.261Z,8.92
2022-12-25T16:22:48.582Z,8.94
2022-12-25T16:25:34.948Z,8.91
2022-12-25T16:28:19.875Z,9.02
2022-12-25T16:31:05.728Z,9.06
2022-12-25T16:33:50.804Z,8.93
2022-12-25T16:36:37.006Z,8.91
2022-12-25T16:39:22.310Z,8.81
2022-12-25T16:42:07.567Z,8.87
2022-12-25T16:44:52.999Z,8.92
2022-12-25T16:47:38.167Z,8.90
2022-12-25T16:50:23.403Z,8.97
2022-12-25T16:53:09.602Z,8.89
2022-12-25T16:56:05.219Z,8.95
2022-12-25T16:58:50.881Z,8.94
2022-12-25T17:01:36.169Z,9.03
2022-12-25T17:04:21.165Z,9.04
2022-12-25T17:07:06.512Z,8.91
2022-12-25T17:09:51.683Z,8.95
2022-12-25T17:12:37.309Z,8.92
2022-12-25T17:15:22.598Z,8.88
2022-12-25T17:18:07.911Z,8.91
2022-12-25T17:20:53.815Z,9.00
2022-12-25T17:23:39.130Z,8.94
2022-12-25T17:26:24.193Z,8.94
2022-12-25T17:29:11.132Z,8.99
2022-12-25T17:31:56.299Z,9.02
2022-12-25T17:34:41.724Z,9.07
2022-12-25T17:37:26.527Z,9.12
2022-12-25T17:40:11.926Z,9.10
2022-12-25T17:42:56.815Z,9.17
2022-12-25T17:45:41.914Z,9.18
2022-12-25T17:48:26.799Z,9.26
2022-12-25T17:51:14.491Z,9.27
2022-12-25T17:54:01.731Z,9.25
2022-12-25T17:56:46.974Z,9.20
2022-12-25T17:59:32.118Z,9.23
2022-12-25T18:02:17.350Z,9.51
2022-12-25T18:05:02.621Z,9.25
2022-12-25T18:07:47.904Z,9.28
2022-12-25T18:10:38.034Z,9.25
2022-12-25T18:13:23.187Z,9.25
2022-12-25T18:16:08.447Z,9.42
2022-12-25T18:18:53.895Z,9.34
2022-12-25T18:21:39.178Z,9.21
2022-12-25T18:24:24.578Z,9.17
2022-12-25T18:27:09.818Z,9.17
2022-12-25T18:29:54.860Z,9.12
2022-12-25T18:32:40.148Z,9.06
2022-12-25T18:35:25.490Z,9.10
2022-12-25T18:38:12.090Z,9.30
2022-12-25T18:40:57.159Z,9.31
2022-12-25T18:43:53.807Z,9.37
2022-12-25T18:46:39.961Z,9.22
2022-12-25T18:49:25.488Z,9.18
2022-12-25T18:52:47.535Z,9.16
2022-12-25T18:55:15.388Z,9.22
2022-12-25T18:58:00.527Z,9.29
2022-12-25T19:00:45.711Z,9.34
2022-12-25T19:03:31.281Z,9.05
2022-12-25T19:06:21.667Z,8.92
2022-12-25T19:09:07.113Z,8.85
2022-12-25T19:11:52.136Z,8.93
2022-12-25T19:14:47.148Z,9.05
2022-12-25T19:17:33.661Z,9.13
2022-12-25T19:20:18.473Z,9.17
2022-12-25T19:23:03.497Z,9.21
2022-12-25T19:25:48.896Z,9.35
2022-12-25T19:28:33.997Z,9.51
2022-12-25T19:31:19.143Z,9.35
2022-12-25T19:34:05.113Z,9.37
2022-12-25T19:36:51.004Z,9.38
2022-12-25T19:39:36.410Z,9.40
2022-12-25T19:42:21.608Z,9.39
2022-12-25T19:45:07.140Z,9.45
2022-12-25T19:47:52.053Z,9.43
2022-12-25T19:50:37.058Z,9.46
2022-12-25T19:53:21.980Z,9.49
2022-12-25T19:56:07.309Z,9.55
2022-12-25T19:58:52.743Z,9.58
2022-12-25T20:01:38.690Z,9.67
2022-12-25T20:04:24.071Z,9.69
2022-12-25T20:07:08.890Z,9.69
2022-12-25T20:09:53.712Z,9.68
2022-12-25T20:12:39.045Z,9.74
2022-12-25T20:15:23.975Z,9.79
2022-12-25T20:18:09.012Z,9.81
2022-12-25T20:21:01.300Z,9.86
2022-12-25T20:23:49.590Z,9.88
2022-12-25T20:26:35.822Z,9.90
2022-12-25T20:29:20.733Z,9.88
2022-12-25T20:32:05.870Z,9.91
2022-12-25T20:34:51.723Z,9.91
2022-12-25T20:37:36.874Z,9.93
2022-12-25T20:40:21.844Z,9.88
2022-12-25T20:43:07.376Z,9.93
2022-12-25T20:45:52.885Z,9.92
2022-12-25T20:48:38.217Z,9.92
2022-12-25T20:51:26.110Z,9.90
2022-12-25T20:54:12.397Z,9.87
2022-12-25T20:56:57.694Z,9.88
2022-12-25T20:59:43.299Z,9.90
2022-12-25T21:02:34.101Z,9.88
2022-12-25T21:05:21.689Z,9.88
2022-12-25T21:08:07.279Z,9.88
2022-12-25T21:10:54.857Z,9.89
2022-12-25T21:13:42.985Z,9.88
2022-12-25T21:16:28.499Z,9.90
2022-12-25T21:19:13.621Z,9.88
2022-12-25T21:21:59.319Z,9.87
2022-12-25T21:24:45.671Z,9.88
2022-12-25T21:27:31.087Z,9.94
2022-12-25T21:30:16.208Z,9.92
2022-12-25T21:33:01.653Z,9.93
2022-12-25T21:35:47.047Z,9.93
2022-12-25T21:38:32.194Z,9.95
2022-12-25T21:41:17.669Z,9.96
2022-12-25T21:44:03.069Z,9.94
2022-12-25T21:46:48.406Z,10.00
2022-12-25T21:49:33.804Z,9.97
2022-12-25T21:52:18.796Z,9.96
2022-12-25T21:55:04.341Z,9.96
2022-12-25T21:57:49.503Z,9.91
2022-12-25T22:00:35.028Z,9.99
2022-12-25T22:03:20.512Z,9.97
2022-12-25T22:06:06.143Z,10.00
2022-12-25T22:08:51.259Z,10.01
2022-12-25T22:11:36.699Z,10.03
2022-12-25T22:14:51.876Z,10.04
2022-12-25T22:17:31.380Z,10.09
2022-12-25T22:20:28.513Z,10.11
2022-12-25T22:23:13.794Z,10.09
2022-12-25T22:25:58.467Z,10.06
2022-12-25T22:28:43.836Z,10.09
2022-12-25T22:31:29.415Z,10.07
2022-12-25T22:34:16.024Z,10.07
2022-12-25T22:37:02.366Z,10.06
2022-12-25T22:39:47.487Z,10.09
2022-12-25T22:42:33.034Z,10.08
2022-12-25T22:45:18.400Z,10.08
2022-12-25T22:48:03.653Z,10.09
2022-12-25T22:50:48.932Z,10.07
2022-12-25T22:53:33.801Z,10.09
2022-12-25T22:56:18.853Z,10.07
2022-12-25T22:59:03.708Z,10.09
2022-12-25T23:01:50.185Z,10.11
2022-12-25T23:04:36.039Z,10.10
2022-12-25T23:07:20.954Z,10.12
2022-12-25T23:10:06.930Z,10.12
2022-12-25T23:12:52.093Z,10.14
2022-12-25T23:15:37.456Z,10.12
2022-12-25T23:18:22.886Z,10.12
2022-12-25T23:21:07.784Z,10.10
2022-12-25T23:23:53.079Z,10.08
2022-12-25T23:26:38.234Z,10.05
2022-12-25T23:29:23.948Z,10.08
2022-12-25T23:32:09.137Z,10.05
2022-12-25T23:34:55.047Z,10.06
2022-12-25T23:37:39.907Z,10.03
2022-12-25T23:40:24.699Z,10.06
2022-12-25T23:43:09.513Z,10.08
2022-12-25T23:45:54.445Z,10.07
2022-12-25T23:48:39.754Z,10.09
2022-12-25T23:51:24.751Z,10.05
2022-12-25T23:54:12.159Z,10.10
2022-12-25T23:56:57.717Z,10.09
2022-12-25T23:59:43.049Z,10.08
